createdAt,value
2022-08-30T00:00:40.643Z,3.60
2022-08-30T00:04:43.385Z,3.17
2022-08-30T00:08:49.904Z,3.13
2022-08-30T00:12:53.191Z,3.28
2022-08-30T00:16:56.236Z,3.30
2022-08-30T00:20:59.017Z,2.88
2022-08-30T00:25:03.140Z,3.40
2022-08-30T00:29:05.898Z,3.25
2022-08-30T00:33:09.138Z,3.15
2022-08-30T00:37:11.902Z,3.03
2022-08-30T00:41:16.035Z,3.20
2022-08-30T00:45:22.102Z,3.53
2022-08-30T00:49:25.636Z,3.35
2022-08-30T00:53:31.729Z,3.13
2022-08-30T00:57:36.746Z,3.20
2022-08-30T01:01:39.976Z,2.85
2022-08-30T01:05:43.757Z,3.13
2022-08-30T01:09:47.082Z,3.40
2022-08-30T01:13:54.264Z,3.05
2022-08-30T01:17:58.057Z,3.03
2022-08-30T01:22:06.537Z,3.13
2022-08-30T01:26:11.553Z,3.00
2022-08-30T01:30:15.117Z,2.90
2022-08-30T01:34:18.029Z,2.90
2022-08-30T01:38:22.899Z,3.03
2022-08-30T01:42:28.042Z,2.80
2022-08-30T01:46:35.916Z,3.05
2022-08-30T01:50:38.698Z,3.20
2022-08-30T01:54:46.019Z,3.28
2022-08-30T01:58:50.547Z,3.00
2022-08-30T02:02:53.464Z,2.97
2022-08-30T02:06:56.304Z,2.78
2022-08-30T02:10:59.966Z,2.90
2022-08-30T02:15:04.186Z,3.13
2022-08-30T02:19:06.968Z,3.05
2022-08-30T02:23:09.910Z,3.17
2022-08-30T02:27:12.702Z,3.00
2022-08-30T02:31:17.147Z,3.28
2022-08-30T02:35:22.287Z,2.75
2022-08-30T02:39:25.078Z,3.00
2022-08-30T02:43:28.327Z,3.10
2022-08-30T02:47:32.626Z,3.00
2022-08-30T02:51:35.862Z,2.50
2022-08-30T02:55:38.725Z,2.60
2022-08-30T02:59:44.172Z,2.50
2022-08-30T03:03:48.636Z,2.75
2022-08-30T03:07:51.699Z,2.42
2022-08-30T03:11:54.597Z,2.80
2022-08-30T03:15:57.647Z,2.63
2022-08-30T03:20:02.482Z,2.60
2022-08-30T03:24:05.817Z,2.70
2022-08-30T03:28:08.799Z,2.33
2022-08-30T03:32:11.596Z,2.50
2022-08-30T03:36:15.836Z,2.50
2022-08-30T03:40:20.830Z,2.60
2022-08-30T03:44:24.160Z,2.83
2022-08-30T03:48:27.018Z,2.30
2022-08-30T03:52:31.207Z,2.95
2022-08-30T03:56:34.145Z,3.45
2022-08-30T04:00:37.165Z,4.50
2022-08-30T04:04:40.097Z,3.53
2022-08-30T04:08:45.953Z,3.65
2022-08-30T04:12:49.824Z,3.70
2022-08-30T04:16:52.826Z,3.10
2022-08-30T04:20:55.660Z,2.95
2022-08-30T04:25:00.895Z,3.35
2022-08-30T04:29:03.738Z,3.33
2022-08-30T04:33:06.526Z,3.15
2022-08-30T04:37:10.139Z,3.30
2022-08-30T04:41:20.832Z,4.00
2022-08-30T04:45:23.857Z,3.70
2022-08-30T04:49:26.679Z,3.75
2022-08-30T04:53:29.480Z,4.55
2022-08-30T04:57:34.150Z,4.60
2022-08-30T05:01:45.076Z,9.50
2022-08-30T05:05:49.921Z,6.35
2022-08-30T05:09:52.676Z,4.80
2022-08-30T05:13:57.040Z,5.70
2022-08-30T05:18:00.194Z,5.40
2022-08-30T05:22:03.073Z,4.80
2022-08-30T05:26:07.715Z,5.78
2022-08-30T05:30:13.918Z,5.70
2022-08-30T05:34:16.766Z,5.40
2022-08-30T05:38:19.565Z,4.72
2022-08-30T05:42:22.478Z,5.40
2022-08-30T05:46:29.552Z,4.60
2022-08-30T05:50:34.934Z,5.25
2022-08-30T05:54:39.689Z,5.32
2022-08-30T05:58:43.177Z,4.95
2022-08-30T06:02:47.630Z,4.97
2022-08-30T06:06:50.605Z,4.85
2022-08-30T06:10:53.919Z,5.05
2022-08-30T06:14:56.847Z,5.22
2022-08-30T06:19:01.601Z,5.03
2022-08-30T06:23:04.376Z,5.10
2022-08-30T06:27:07.350Z,5.57
2022-08-30T06:31:11.681Z,5.45
2022-08-30T06:35:15.830Z,5.38
2022-08-30T06:39:18.556Z,4.80
2022-08-30T06:43:21.326Z,4.63
2022-08-30T06:47:24.046Z,4.45
2022-08-30T06:51:31.442Z,5.25
2022-08-30T06:55:34.289Z,4.90
2022-08-30T06:59:37.010Z,4.65
2022-08-30T07:03:40.090Z,4.28
2022-08-30T07:07:44.352Z,4.25
2022-08-30T07:11:47.470Z,4.30
2022-08-30T07:15:50.571Z,5.20
2022-08-30T07:19:53.460Z,4.63
2022-08-30T07:23:59.351Z,4.28
2022-08-30T07:28:02.094Z,4.47
2022-08-30T07:32:05.634Z,4.97
2022-08-30T07:36:09.079Z,4.10
2022-08-30T07:40:14.047Z,4.18
2022-08-30T07:44:16.860Z,4.10
2022-08-30T07:48:19.682Z,4.28
2022-08-30T07:52:22.424Z,4.55
2022-08-30T07:56:26.881Z,3.90
2022-08-30T08:00:29.642Z,4.10
2022-08-30T08:04:33.159Z,4.38
2022-08-30T08:08:36.676Z,4.53
2022-08-30T08:12:40.879Z,4.18
2022-08-30T08:16:44.772Z,4.13
2022-08-30T08:20:47.526Z,3.65
2022-08-30T08:24:50.951Z,4.35
2022-08-30T08:28:55.670Z,4.05
2022-08-30T08:32:58.417Z,4.72
2022-08-30T08:37:01.191Z,4.60
2022-08-30T08:41:10.420Z,4.40
2022-08-30T08:45:18.826Z,4.07
2022-08-30T08:49:24.487Z,5.60
2022-08-30T08:53:46.211Z,5.93
2022-08-30T08:57:52.297Z,6.80
2022-08-30T09:01:59.183Z,5.40
2022-08-30T09:06:05.056Z,6.07
2022-08-30T09:10:08.929Z,5.70
2022-08-30T09:14:16.885Z,5.30
2022-08-30T09:18:22.005Z,6.10
2022-08-30T09:22:27.710Z,5.10
2022-08-30T09:26:33.416Z,5.53
2022-08-30T09:30:36.957Z,5.95
2022-08-30T09:34:44.823Z,5.68
2022-08-30T09:38:57.190Z,5.97
2022-08-30T09:43:03.940Z,6.55
2022-08-30T09:47:20.957Z,6.05
2022-08-30T09:51:44.494Z,6.50
2022-08-30T09:55:56.697Z,6.18
2022-08-30T10:00:06.223Z,6.05
2022-08-30T10:04:16.397Z,6.82
2022-08-30T10:08:27.891Z,6.20
2022-08-30T10:12:36.690Z,6.43
2022-08-30T10:16:51.985Z,6.45
2022-08-30T10:20:59.185Z,5.10
2022-08-30T10:25:09.191Z,5.40
2022-08-30T10:29:15.797Z,5.95
2022-08-30T10:33:23.041Z,5.65
2022-08-30T10:37:32.109Z,6.30
2022-08-30T10:41:40.386Z,5.30
2022-08-30T10:45:45.989Z,5.32
2022-08-30T10:49:50.326Z,4.90
2022-08-30T10:53:58.477Z,6.00
2022-08-30T10:58:05.296Z,4.55
2022-08-30T11:02:24.473Z,3.75
2022-08-30T11:06:37.442Z,3.75
2022-08-30T11:10:50.313Z,4.30
2022-08-30T11:14:55.596Z,3.97
2022-08-30T11:18:59.182Z,3.80
2022-08-30T11:23:32.870Z,4.60
2022-08-30T11:27:51.550Z,4.95
2022-08-30T11:31:57.206Z,4.43
2022-08-30T11:36:00.924Z,4.07
2022-08-30T11:40:06.739Z,3.75
2022-08-30T11:44:30.204Z,4.30
2022-08-30T11:48:53.543Z,4.53
2022-08-30T11:53:03.824Z,4.07
2022-08-30T11:57:14.576Z,4.55
2022-08-30T12:01:41.983Z,3.95
2022-08-30T12:05:58.891Z,3.85
2022-08-30T12:10:06.494Z,3.47
2022-08-30T12:14:29.488Z,3.90
2022-08-30T12:18:44.556Z,3.70
2022-08-30T12:22:47.410Z,3.78
2022-08-30T12:26:53.232Z,3.38
2022-08-30T12:30:56.003Z,3.17
2022-08-30T12:35:02.133Z,3.53
2022-08-30T12:39:12.679Z,3.55
2022-08-30T12:43:26.589Z,3.60
2022-08-30T12:47:35.345Z,3.28
2022-08-30T12:51:42.524Z,3.15
2022-08-30T12:55:53.793Z,3.00
2022-08-30T12:59:59.746Z,3.17
2022-08-30T13:04:15.244Z,3.20
2022-08-30T13:08:22.724Z,3.00
2022-08-30T13:12:27.866Z,2.75
2022-08-30T13:16:42.248Z,2.60
2022-08-30T13:20:48.005Z,3.00
2022-08-30T13:24:52.929Z,2.70
2022-08-30T13:28:59.396Z,3.10
2022-08-30T13:33:02.581Z,2.83
2022-08-30T13:37:05.681Z,3.50
2022-08-30T13:41:10.865Z,3.28
2022-08-30T13:49:46.630Z,3.10
2022-08-30T13:53:53.597Z,3.00
2022-08-30T13:57:58.328Z,3.45
2022-08-30T14:02:11.471Z,3.40
2022-08-30T14:06:32.289Z,2.88
2022-08-30T14:10:46.642Z,3.25
2022-08-30T14:14:52.301Z,3.00
2022-08-30T14:19:18.421Z,3.30
2022-08-30T14:23:21.551Z,3.50
2022-08-30T14:27:24.700Z,2.90
2022-08-30T14:31:32.726Z,2.65
2022-08-30T14:35:36.683Z,2.58
2022-08-30T14:39:39.554Z,2.75
2022-08-30T14:43:42.799Z,2.70
2022-08-30T14:47:47.639Z,2.63
2022-08-30T14:51:50.849Z,3.17
2022-08-30T14:55:53.908Z,2.22
2022-08-30T14:59:56.640Z,2.38
2022-08-30T15:04:01.465Z,2.30
2022-08-30T15:08:04.534Z,2.30
2022-08-30T15:12:07.862Z,2.30
2022-08-30T15:16:12.782Z,2.22
2022-08-30T15:20:20.014Z,2.20
2022-08-30T15:24:29.749Z,2.92
2022-08-30T15:28:32.874Z,2.10
2022-08-30T15:32:35.652Z,1.90
2022-08-30T15:36:43.320Z,2.03
2022-08-30T15:40:46.311Z,4.78
2022-08-30T15:44:51.882Z,2.00
2022-08-30T15:48:56.750Z,2.25
2022-08-30T15:53:02.058Z,1.90
2022-08-30T15:57:05.849Z,1.98
2022-08-30T16:01:09.418Z,2.47
2022-08-30T16:05:12.426Z,2.10
2022-08-30T16:09:17.467Z,1.90
2022-08-30T16:13:21.019Z,2.10
2022-08-30T16:17:24.041Z,2.33
2022-08-30T16:21:28.750Z,1.80
2022-08-30T16:25:40.064Z,1.90
2022-08-30T16:29:44.102Z,2.25
2022-08-30T16:33:47.356Z,2.00
2022-08-30T16:37:55.458Z,2.08
2022-08-30T16:42:03.095Z,2.00
2022-08-30T16:46:08.577Z,2.13
2022-08-30T16:50:12.253Z,2.08
2022-08-30T16:54:15.583Z,2.00
2022-08-30T16:58:21.927Z,2.35
2022-08-30T17:02:25.670Z,3.10
2022-08-30T17:06:28.578Z,2.17
2022-08-30T17:10:33.365Z,2.45
2022-08-30T17:14:37.609Z,1.90
2022-08-30T17:18:40.532Z,2.47
2022-08-30T17:22:46.245Z,2.00
2022-08-30T17:26:49.095Z,1.73
2022-08-30T17:30:53.235Z,1.95
2022-08-30T17:34:56.170Z,2.50
2022-08-30T17:38:59.597Z,2.35
2022-08-30T17:43:02.501Z,2.03
2022-08-30T17:47:07.160Z,1.90
2022-08-30T17:51:10.461Z,2.22
2022-08-30T17:55:13.525Z,2.13
2022-08-30T17:59:18.062Z,2.35
2022-08-30T18:03:24.273Z,2.50
2022-08-30T18:07:27.219Z,2.83
2022-08-30T18:11:30.005Z,2.80
2022-08-30T18:15:32.968Z,2.33
2022-08-30T18:19:46.070Z,2.92
2022-08-30T18:23:50.790Z,2.83
2022-08-30T18:27:58.870Z,2.20
2022-08-30T18:32:03.265Z,2.80
2022-08-30T18:36:09.169Z,2.17
2022-08-30T18:40:18.768Z,2.70
2022-08-30T18:44:33.435Z,2.88
2022-08-30T18:48:36.819Z,3.00
2022-08-30T18:52:41.083Z,2.33
2022-08-30T18:56:47.991Z,3.13
2022-08-30T19:00:52.360Z,2.78
2022-08-30T19:04:56.251Z,3.10
2022-08-30T19:09:00.530Z,3.00
2022-08-30T19:13:03.781Z,3.40
2022-08-30T19:17:07.360Z,3.38
2022-08-30T19:21:13.684Z,2.72
2022-08-30T19:25:20.529Z,3.70
2022-08-30T19:29:23.329Z,3.35
2022-08-30T19:33:27.155Z,3.08
2022-08-30T19:37:30.457Z,3.10
2022-08-30T19:41:35.224Z,3.03
2022-08-30T19:45:39.211Z,3.15
2022-08-30T19:49:42.002Z,2.83
2022-08-30T19:53:44.813Z,3.05
2022-08-30T19:57:49.532Z,3.15
2022-08-30T20:01:52.343Z,3.22
2022-08-30T20:05:55.183Z,3.55
2022-08-30T20:10:00.211Z,3.42
2022-08-30T20:14:04.291Z,3.63
2022-08-30T20:18:14.430Z,3.42
2022-08-30T20:22:18.821Z,3.05
2022-08-30T20:26:22.359Z,3.20
2022-08-30T20:30:37.877Z,3.63
2022-08-30T20:34:40.686Z,4.40
2022-08-30T20:38:43.687Z,3.60
2022-08-30T20:42:46.615Z,3.72
2022-08-30T20:46:50.940Z,3.50
2022-08-30T20:50:53.726Z,2.85
2022-08-30T20:54:56.512Z,2.65
2022-08-30T20:59:01.889Z,3.13
2022-08-30T21:03:11.457Z,2.72
2022-08-30T21:07:30.490Z,3.25
2022-08-30T21:11:34.298Z,2.28
2022-08-30T21:15:38.144Z,2.75
2022-08-30T21:19:44.153Z,2.70
2022-08-30T21:23:47.118Z,2.45
2022-08-30T21:27:49.918Z,2.90
2022-08-30T21:31:52.671Z,2.17
2022-08-30T21:36:16.780Z,2.10
2022-08-30T21:40:22.646Z,1.88
2022-08-30T21:44:27.723Z,2.20
2022-08-30T21:48:30.507Z,2.00
2022-08-30T21:52:36.151Z,1.40
2022-08-30T21:56:40.796Z,1.58
2022-08-30T22:00:43.636Z,1.40
2022-08-30T22:04:46.402Z,1.45
2022-08-30T22:08:50.601Z,1.70
2022-08-30T22:12:55.886Z,1.40
2022-08-30T22:16:58.744Z,1.50
2022-08-30T22:21:03.673Z,1.73
2022-08-30T22:25:11.700Z,1.70
2022-08-30T22:29:14.801Z,1.90
2022-08-30T22:33:19.779Z,1.30
2022-08-30T22:37:22.618Z,1.50
2022-08-30T22:41:31.473Z,1.20
2022-08-30T22:45:34.457Z,1.50
2022-08-30T22:49:37.219Z,1.40
2022-08-30T22:53:40.660Z,1.80
2022-08-30T22:57:44.757Z,1.67
2022-08-30T23:01:47.570Z,1.65
2022-08-30T23:05:50.393Z,1.70
2022-08-30T23:09:53.190Z,1.45
2022-08-30T23:13:57.646Z,1.65
2022-08-30T23:18:00.405Z,1.23
2022-08-30T23:22:03.140Z,1.60
2022-08-30T23:26:23.816Z,1.80
2022-08-30T23:30:45.774Z,1.70
2022-08-30T23:35:06.461Z,1.70
2022-08-30T23:39:26.962Z,1.45
2022-08-30T23:43:47.366Z,1.60
2022-08-30T23:48:09.088Z,1.70
2022-08-30T23:52:29.548Z,1.92
2022-08-30T23:56:50.919Z,1.95
